Sierra Bonita, Arizona
Current Conditions -  °F | °C
As of 4:51 AM on Tuesday 21 Oct 2014 (Local Time) from KSAD Reporting Station
Clear Clear  
Wind Chill: 57°   Ceiling: Unl
Heat Index: 57°   Visibility: 10mi
Dew Point: 50°   Wind: 8mph
Humidity: 77%   Direction: 120°ESE
Pressure: 30.01"   Gusts: NA
Location:  32.5598°N, 110.08°W
Report Text: KSAD 211151Z AUTO 12007KT 10SM CLR 14/10 A3001 RMK AO2 SLP128 T01390100 10178 20133 53002
Loading
Personal Weather Stations






























Interactive Weather Map
Tropical Storm Tracking
New forecast layout! Learn more

10-Day Weather Forecast

Advertisements
Track Severe Weather on mobile